sensor_id;sensor_type;location;lat;lon;timestamp;P1;P2;P0
70520;PMS5003;58442;52.716;23.560;2022-12-29T00:01:25;16;15;9
70520;PMS5003;58442;52.716;23.560;2022-12-29T00:03:26;19;19;10
70520;PMS5003;58442;52.716;23.560;2022-12-29T00:05:27;15;14;11
70520;PMS5003;58442;52.716;23.560;2022-12-29T00:07:28;19;18;11
70520;PMS5003;58442;52.716;23.560;2022-12-29T00:09:32;13;13;7
70520;PMS5003;58442;52.716;23.560;2022-12-29T00:11:34;14;14;8
70520;PMS5003;58442;52.716;23.560;2022-12-29T00:13:35;11;11;9
70520;PMS5003;58442;52.716;23.560;2022-12-29T00:15:48;14;14;8
70520;PMS5003;58442;52.716;23.560;2022-12-29T00:17:49;20;18;11
70520;PMS5003;58442;52.716;23.560;2022-12-29T00:19:50;18;18;10
70520;PMS5003;58442;52.716;23.560;2022-12-29T00:22:03;14;14;8
70520;PMS5003;58442;52.716;23.560;2022-12-29T00:24:20;16;16;11
70520;PMS5003;58442;52.716;23.560;2022-12-29T00:26:34;12;12;9
70520;PMS5003;58442;52.716;23.560;2022-12-29T00:28:50;14;14;11
70520;PMS5003;58442;52.716;23.560;2022-12-29T00:31:04;11;11;6
70520;PMS5003;58442;52.716;23.560;2022-12-29T00:35:55;10;10;8
70520;PMS5003;58442;52.716;23.560;2022-12-29T00:37:55;14;13;9
70520;PMS5003;58442;52.716;23.560;2022-12-29T00:40:16;8;8;5
70520;PMS5003;58442;52.716;23.560;2022-12-29T00:42:37;12;12;10
70520;PMS5003;58442;52.716;23.560;2022-12-29T00:44:59;13;13;9
70520;PMS5003;58442;52.716;23.560;2022-12-29T00:47:00;13;11;7
70520;PMS5003;58442;52.716;23.560;2022-12-29T00:49:05;10;10;8
70520;PMS5003;58442;52.716;23.560;2022-12-29T00:51:20;13;12;10
70520;PMS5003;58442;52.716;23.560;2022-12-29T00:53:21;12;12;9
70520;PMS5003;58442;52.716;23.560;2022-12-29T00:55:22;20;17;10
70520;PMS5003;58442;52.716;23.560;2022-12-29T00:57:23;11;11;8
70520;PMS5003;58442;52.716;23.560;2022-12-29T00:59:24;16;16;10
70520;PMS5003;58442;52.716;23.560;2022-12-29T01:01:29;12;12;8
70520;PMS5003;58442;52.716;23.560;2022-12-29T01:03:30;13;13;8
70520;PMS5003;58442;52.716;23.560;2022-12-29T01:05:31;8;8;3
70520;PMS5003;58442;52.716;23.560;2022-12-29T01:07:36;10;9;6
70520;PMS5003;58442;52.716;23.560;2022-12-29T01:09:44;12;12;8
70520;PMS5003;58442;52.716;23.560;2022-12-29T01:12:05;21;19;11
70520;PMS5003;58442;52.716;23.560;2022-12-29T01:14:08;18;17;11
70520;PMS5003;58442;52.716;23.560;2022-12-29T01:16:09;16;16;10
70520;PMS5003;58442;52.716;23.560;2022-12-29T01:18:10;18;18;10
70520;PMS5003;58442;52.716;23.560;2022-12-29T01:20:20;16;15;9
70520;PMS5003;58442;52.716;23.560;2022-12-29T01:22:21;19;13;5
70520;PMS5003;58442;52.716;23.560;2022-12-29T01:24:23;20;19;11
70520;PMS5003;58442;52.716;23.560;2022-12-29T01:26:26;24;22;10
70520;PMS5003;58442;52.716;23.560;2022-12-29T01:28:35;13;13;6
70520;PMS5003;58442;52.716;23.560;2022-12-29T01:30:40;12;12;8
70520;PMS5003;58442;52.716;23.560;2022-12-29T01:32:41;14;14;9
70520;PMS5003;58442;52.716;23.560;2022-12-29T01:34:42;11;10;6
70520;PMS5003;58442;52.716;23.560;2022-12-29T01:36:52;12;11;8
70520;PMS5003;58442;52.716;23.560;2022-12-29T01:38:53;20;18;9
70520;PMS5003;58442;52.716;23.560;2022-12-29T01:40:54;22;20;11
70520;PMS5003;58442;52.716;23.560;2022-12-29T01:42:55;19;17;10
70520;PMS5003;58442;52.716;23.560;2022-12-29T01:44:57;13;13;10
70520;PMS5003;58442;52.716;23.560;2022-12-29T01:47:02;13;13;8
70520;PMS5003;58442;52.716;23.560;2022-12-29T01:51:16;15;15;9
70520;PMS5003;58442;52.716;23.560;2022-12-29T01:55:30;18;18;11
70520;PMS5003;58442;52.716;23.560;2022-12-29T01:57:36;11;11;8
70520;PMS5003;58442;52.716;23.560;2022-12-29T01:59:46;14;14;8
70520;PMS5003;58442;52.716;23.560;2022-12-29T02:01:55;15;15;10
70520;PMS5003;58442;52.716;23.560;2022-12-29T02:03:56;14;14;10
70520;PMS5003;58442;52.716;23.560;2022-12-29T02:05:58;17;13;7
70520;PMS5003;58442;52.716;23.560;2022-12-29T02:08:05;12;12;9
70520;PMS5003;58442;52.716;23.560;2022-12-29T02:10:10;8;8;6
70520;PMS5003;58442;52.716;23.560;2022-12-29T02:12:11;15;15;8
70520;PMS5003;58442;52.716;23.560;2022-12-29T02:14:13;12;12;8
70520;PMS5003;58442;52.716;23.560;2022-12-29T02:16:17;14;14;9
70520;PMS5003;58442;52.716;23.560;2022-12-29T02:20:57;15;12;8
70520;PMS5003;58442;52.716;23.560;2022-12-29T02:25:33;13;12;8
70520;PMS5003;58442;52.716;23.560;2022-12-29T02:30:15;12;12;8
70520;PMS5003;58442;52.716;23.560;2022-12-29T02:39:41;10;10;7
70520;PMS5003;58442;52.716;23.560;2022-12-29T02:42:03;18;18;10
70520;PMS5003;58442;52.716;23.560;2022-12-29T02:46:51;13;13;9
70520;PMS5003;58442;52.716;23.560;2022-12-29T02:49:09;16;16;12
70520;PMS5003;58442;52.716;23.560;2022-12-29T02:51:26;11;11;9
70520;PMS5003;58442;52.716;23.560;2022-12-29T02:53:33;13;13;8
70520;PMS5003;58442;52.716;23.560;2022-12-29T02:55:48;19;19;10
70520;PMS5003;58442;52.716;23.560;2022-12-29T02:58:06;15;14;10
70520;PMS5003;58442;52.716;23.560;2022-12-29T03:04:54;15;15;10
70520;PMS5003;58442;52.716;23.560;2022-12-29T03:09:26;15;15;9
70520;PMS5003;58442;52.716;23.560;2022-12-29T03:11:46;19;19;11
70520;PMS5003;58442;52.716;23.560;2022-12-29T03:14:07;16;16;8
70520;PMS5003;58442;52.716;23.560;2022-12-29T03:18:51;18;17;8
70520;PMS5003;58442;52.716;23.560;2022-12-29T03:21:08;14;12;9
70520;PMS5003;58442;52.716;23.560;2022-12-29T03:23:14;13;12;9
70520;PMS5003;58442;52.716;23.560;2022-12-29T03:25:23;15;14;9
70520;PMS5003;58442;52.716;23.560;2022-12-29T03:27:30;16;15;8
70520;PMS5003;58442;52.716;23.560;2022-12-29T03:29:36;9;8;7
70520;PMS5003;58442;52.716;23.560;2022-12-29T03:31:44;18;14;8
70520;PMS5003;58442;52.716;23.560;2022-12-29T03:33:47;16;13;10
70520;PMS5003;58442;52.716;23.560;2022-12-29T03:35:50;12;12;10
70520;PMS5003;58442;52.716;23.560;2022-12-29T03:37:59;8;8;7
70520;PMS5003;58442;52.716;23.560;2022-12-29T03:40:08;14;14;9
70520;PMS5003;58442;52.716;23.560;2022-12-29T03:42:11;9;7;4
70520;PMS5003;58442;52.716;23.560;2022-12-29T03:44:16;23;20;10
70520;PMS5003;58442;52.716;23.560;2022-12-29T03:46:17;16;15;7
70520;PMS5003;58442;52.716;23.560;2022-12-29T03:48:20;12;12;8
70520;PMS5003;58442;52.716;23.560;2022-12-29T03:50:21;20;13;9
70520;PMS5003;58442;52.716;23.560;2022-12-29T03:52:22;18;17;11
70520;PMS5003;58442;52.716;23.560;2022-12-29T03:54:23;12;12;10
70520;PMS5003;58442;52.716;23.560;2022-12-29T03:56:35;15;13;9
70520;PMS5003;58442;52.716;23.560;2022-12-29T03:58:36;13;12;9
70520;PMS5003;58442;52.716;23.560;2022-12-29T04:00:37;11;11;8
70520;PMS5003;58442;52.716;23.560;2022-12-29T04:02:38;15;15;9
70520;PMS5003;58442;52.716;23.560;2022-12-29T04:04:39;13;13;8
70520;PMS5003;58442;52.716;23.560;2022-12-29T04:06:40;16;16;9
70520;PMS5003;58442;52.716;23.560;2022-12-29T04:08:41;11;11;9
70520;PMS5003;58442;52.716;23.560;2022-12-29T04:10:44;15;15;10
70520;PMS5003;58442;52.716;23.560;2022-12-29T04:12:45;18;18;13
70520;PMS5003;58442;52.716;23.560;2022-12-29T04:14:47;18;17;11
70520;PMS5003;58442;52.716;23.560;2022-12-29T04:16:48;15;14;9
70520;PMS5003;58442;52.716;23.560;2022-12-29T04:18:48;13;13;11
70520;PMS5003;58442;52.716;23.560;2022-12-29T04:20:50;11;11;8
70520;PMS5003;58442;52.716;23.560;2022-12-29T04:23:00;25;22;11
70520;PMS5003;58442;52.716;23.560;2022-12-29T04:25:02;19;19;10
70520;PMS5003;58442;52.716;23.560;2022-12-29T04:27:03;18;16;11
70520;PMS5003;58442;52.716;23.560;2022-12-29T04:29:04;12;11;6
70520;PMS5003;58442;52.716;23.560;2022-12-29T04:31:05;9;9;7
70520;PMS5003;58442;52.716;23.560;2022-12-29T04:33:09;13;12;8
70520;PMS5003;58442;52.716;23.560;2022-12-29T04:35:10;17;16;9
70520;PMS5003;58442;52.716;23.560;2022-12-29T04:37:11;14;14;10
70520;PMS5003;58442;52.716;23.560;2022-12-29T04:39:12;15;15;9
70520;PMS5003;58442;52.716;23.560;2022-12-29T04:41:13;16;15;10
70520;PMS5003;58442;52.716;23.560;2022-12-29T04:43:14;17;14;10
70520;PMS5003;58442;52.716;23.560;2022-12-29T04:45:16;14;14;10
70520;PMS5003;58442;52.716;23.560;2022-12-29T04:47:18;11;11;7
70520;PMS5003;58442;52.716;23.560;2022-12-29T04:49:19;13;13;9
70520;PMS5003;58442;52.716;23.560;2022-12-29T04:51:20;12;12;8
70520;PMS5003;58442;52.716;23.560;2022-12-29T04:53:21;15;15;9
70520;PMS5003;58442;52.716;23.560;2022-12-29T04:55:22;16;14;8
70520;PMS5003;58442;52.716;23.560;2022-12-29T04:57:23;12;12;7
70520;PMS5003;58442;52.716;23.560;2022-12-29T04:59:24;15;15;10
70520;PMS5003;58442;52.716;23.560;2022-12-29T05:01:27;14;14;9
70520;PMS5003;58442;52.716;23.560;2022-12-29T05:03:29;14;13;8
70520;PMS5003;58442;52.716;23.560;2022-12-29T05:05:30;13;13;6
70520;PMS5003;58442;52.716;23.560;2022-12-29T05:07:31;13;13;9
70520;PMS5003;58442;52.716;23.560;2022-12-29T05:09:42;15;15;9
70520;PMS5003;58442;52.716;23.560;2022-12-29T05:11:43;14;14;10
70520;PMS5003;58442;52.716;23.560;2022-12-29T05:13:45;14;14;10
70520;PMS5003;58442;52.716;23.560;2022-12-29T05:15:50;17;17;10
70520;PMS5003;58442;52.716;23.560;2022-12-29T05:20:19;13;12;8
70520;PMS5003;58442;52.716;23.560;2022-12-29T05:22:20;13;13;7
70520;PMS5003;58442;52.716;23.560;2022-12-29T05:24:22;12;12;7
70520;PMS5003;58442;52.716;23.560;2022-12-29T05:26:23;15;15;10
70520;PMS5003;58442;52.716;23.560;2022-12-29T05:28:34;16;15;7
70520;PMS5003;58442;52.716;23.560;2022-12-29T05:30:35;16;16;12
70520;PMS5003;58442;52.716;23.560;2022-12-29T05:32:36;12;12;8
70520;PMS5003;58442;52.716;23.560;2022-12-29T05:34:37;10;8;6
70520;PMS5003;58442;52.716;23.560;2022-12-29T05:36:49;11;10;6
70520;PMS5003;58442;52.716;23.560;2022-12-29T05:38:50;11;11;7
70520;PMS5003;58442;52.716;23.560;2022-12-29T05:40:51;13;12;9
70520;PMS5003;58442;52.716;23.560;2022-12-29T05:42:52;13;12;7
70520;PMS5003;58442;52.716;23.560;2022-12-29T05:45:04;11;11;7
70520;PMS5003;58442;52.716;23.560;2022-12-29T05:47:07;13;13;8
70520;PMS5003;58442;52.716;23.560;2022-12-29T05:49:08;13;11;8
70520;PMS5003;58442;52.716;23.560;2022-12-29T05:51:09;12;12;7
70520;PMS5003;58442;52.716;23.560;2022-12-29T05:53:19;15;15;9
70520;PMS5003;58442;52.716;23.560;2022-12-29T05:55:20;13;12;9
70520;PMS5003;58442;52.716;23.560;2022-12-29T05:57:21;14;12;7
70520;PMS5003;58442;52.716;23.560;2022-12-29T05:59:22;11;11;7
70520;PMS5003;58442;52.716;23.560;2022-12-29T06:01:34;12;12;10
70520;PMS5003;58442;52.716;23.560;2022-12-29T06:03:35;13;13;7
70520;PMS5003;58442;52.716;23.560;2022-12-29T06:05:36;15;15;7
70520;PMS5003;58442;52.716;23.560;2022-12-29T06:07:37;13;11;7
70520;PMS5003;58442;52.716;23.560;2022-12-29T06:09:49;9;9;6
70520;PMS5003;58442;52.716;23.560;2022-12-29T06:11:50;18;17;7
70520;PMS5003;58442;52.716;23.560;2022-12-29T06:13:51;14;13;8
70520;PMS5003;58442;52.716;23.560;2022-12-29T06:15:52;11;9;7
70520;PMS5003;58442;52.716;23.560;2022-12-29T06:17:53;6;6;5
70520;PMS5003;58442;52.716;23.560;2022-12-29T06:19:54;16;15;9
70520;PMS5003;58442;52.716;23.560;2022-12-29T06:21:55;10;9;6
70520;PMS5003;58442;52.716;23.560;2022-12-29T06:23:58;1;1;0
70520;PMS5003;58442;52.716;23.560;2022-12-29T06:26:00;8;8;5
70520;PMS5003;58442;52.716;23.560;2022-12-29T06:28:01;17;14;9
70520;PMS5003;58442;52.716;23.560;2022-12-29T06:30:05;8;8;5
70520;PMS5003;58442;52.716;23.560;2022-12-29T06:32:13;9;9;7
70520;PMS5003;58442;52.716;23.560;2022-12-29T06:34:14;15;15;10
70520;PMS5003;58442;52.716;23.560;2022-12-29T06:36:15;10;10;6
70520;PMS5003;58442;52.716;23.560;2022-12-29T06:38:16;14;13;7
70520;PMS5003;58442;52.716;23.560;2022-12-29T06:40:28;11;11;7
70520;PMS5003;58442;52.716;23.560;2022-12-29T06:42:30;14;14;7
70520;PMS5003;58442;52.716;23.560;2022-12-29T06:44:31;15;15;9
70520;PMS5003;58442;52.716;23.560;2022-12-29T06:46:32;13;13;9
70520;PMS5003;58442;52.716;23.560;2022-12-29T06:48:43;10;10;7
70520;PMS5003;58442;52.716;23.560;2022-12-29T06:50:44;10;10;7
70520;PMS5003;58442;52.716;23.560;2022-12-29T06:52:45;10;9;6
70520;PMS5003;58442;52.716;23.560;2022-12-29T06:54:46;23;16;8
70520;PMS5003;58442;52.716;23.560;2022-12-29T06:56:47;10;10;7
70520;PMS5003;58442;52.716;23.560;2022-12-29T06:58:48;14;13;7
70520;PMS5003;58442;52.716;23.560;2022-12-29T07:00:49;10;10;5
70520;PMS5003;58442;52.716;23.560;2022-12-29T07:02:54;13;12;8
70520;PMS5003;58442;52.716;23.560;2022-12-29T07:04:56;12;12;6
70520;PMS5003;58442;52.716;23.560;2022-12-29T07:06:57;10;10;7
70520;PMS5003;58442;52.716;23.560;2022-12-29T07:08:58;13;10;8
70520;PMS5003;58442;52.716;23.560;2022-12-29T07:11:07;12;12;7
70520;PMS5003;58442;52.716;23.560;2022-12-29T07:13:09;9;9;6
70520;PMS5003;58442;52.716;23.560;2022-12-29T07:15:10;16;14;7
70520;PMS5003;58442;52.716;23.560;2022-12-29T07:17:11;30;23;13
70520;PMS5003;58442;52.716;23.560;2022-12-29T07:19:22;22;22;14
70520;PMS5003;58442;52.716;23.560;2022-12-29T07:21:24;26;25;13
70520;PMS5003;58442;52.716;23.560;2022-12-29T07:23:25;16;16;11
70520;PMS5003;58442;52.716;23.560;2022-12-29T07:25:26;45;39;25
70520;PMS5003;58442;52.716;23.560;2022-12-29T07:27:38;61;45;26
70520;PMS5003;58442;52.716;23.560;2022-12-29T07:29:39;17;17;11
70520;PMS5003;58442;52.716;23.560;2022-12-29T07:31:40;23;22;14
70520;PMS5003;58442;52.716;23.560;2022-12-29T07:33:41;41;37;22
70520;PMS5003;58442;52.716;23.560;2022-12-29T07:35:53;27;26;17
70520;PMS5003;58442;52.716;23.560;2022-12-29T07:37:54;56;44;22
70520;PMS5003;58442;52.716;23.560;2022-12-29T07:39:55;46;36;18
70520;PMS5003;58442;52.716;23.560;2022-12-29T07:41:56;14;14;10
70520;PMS5003;58442;52.716;23.560;2022-12-29T07:43:57;14;14;9
70520;PMS5003;58442;52.716;23.560;2022-12-29T07:45:58;18;17;13
70520;PMS5003;58442;52.716;23.560;2022-12-29T07:47:59;16;16;10
70520;PMS5003;58442;52.716;23.560;2022-12-29T07:50:02;15;15;11
70520;PMS5003;58442;52.716;23.560;2022-12-29T07:52:04;19;18;11
70520;PMS5003;58442;52.716;23.560;2022-12-29T07:54:05;14;14;7
70520;PMS5003;58442;52.716;23.560;2022-12-29T07:56:06;11;11;7
70520;PMS5003;58442;52.716;23.560;2022-12-29T07:58:17;26;25;14
70520;PMS5003;58442;52.716;23.560;2022-12-29T08:00:19;13;13;10
70520;PMS5003;58442;52.716;23.560;2022-12-29T08:02:20;13;13;9
70520;PMS5003;58442;52.716;23.560;2022-12-29T08:04:21;17;14;10
70520;PMS5003;58442;52.716;23.560;2022-12-29T08:06:32;20;20;11
70520;PMS5003;58442;52.716;23.560;2022-12-29T08:08:33;33;30;19
70520;PMS5003;58442;52.716;23.560;2022-12-29T08:10:34;27;25;11
70520;PMS5003;58442;52.716;23.560;2022-12-29T08:12:37;14;13;8
70520;PMS5003;58442;52.716;23.560;2022-12-29T08:14:47;11;9;5
70520;PMS5003;58442;52.716;23.560;2022-12-29T08:16:48;17;17;10
70520;PMS5003;58442;52.716;23.560;2022-12-29T08:18:49;19;19;11
70520;PMS5003;58442;52.716;23.560;2022-12-29T08:20:50;21;19;11
70520;PMS5003;58442;52.716;23.560;2022-12-29T08:22:51;21;20;11
70520;PMS5003;58442;52.716;23.560;2022-12-29T08:24:53;11;11;9
70520;PMS5003;58442;52.716;23.560;2022-12-29T08:26:54;17;17;9
70520;PMS5003;58442;52.716;23.560;2022-12-29T08:28:57;12;12;8
70520;PMS5003;58442;52.716;23.560;2022-12-29T08:30:58;10;10;7
70520;PMS5003;58442;52.716;23.560;2022-12-29T08:33:01;15;15;7
70520;PMS5003;58442;52.716;23.560;2022-12-29T08:35:02;26;20;12
70520;PMS5003;58442;52.716;23.560;2022-12-29T08:37:12;25;23;9
70520;PMS5003;58442;52.716;23.560;2022-12-29T08:39:13;35;30;15
70520;PMS5003;58442;52.716;23.560;2022-12-29T08:41:14;31;25;16
70520;PMS5003;58442;52.716;23.560;2022-12-29T08:43:15;23;22;12
70520;PMS5003;58442;52.716;23.560;2022-12-29T08:45:16;28;27;18
70520;PMS5003;58442;52.716;23.560;2022-12-29T08:47:17;41;29;17
70520;PMS5003;58442;52.716;23.560;2022-12-29T08:49:18;41;34;22
70520;PMS5003;58442;52.716;23.560;2022-12-29T08:51:22;26;26;17
70520;PMS5003;58442;52.716;23.560;2022-12-29T08:53:23;24;18;9
70520;PMS5003;58442;52.716;23.560;2022-12-29T08:55:24;30;28;18
70520;PMS5003;58442;52.716;23.560;2022-12-29T08:57:25;20;20;14
70520;PMS5003;58442;52.716;23.560;2022-12-29T08:59:37;24;22;15
70520;PMS5003;58442;52.716;23.560;2022-12-29T09:01:38;15;15;9
70520;PMS5003;58442;52.716;23.560;2022-12-29T09:03:40;14;14;10
70520;PMS5003;58442;52.716;23.560;2022-12-29T09:05:41;16;16;11
70520;PMS5003;58442;52.716;23.560;2022-12-29T09:07:52;16;16;11
70520;PMS5003;58442;52.716;23.560;2022-12-29T09:09:53;12;12;10
70520;PMS5003;58442;52.716;23.560;2022-12-29T09:11:54;20;20;13
70520;PMS5003;58442;52.716;23.560;2022-12-29T09:13:55;13;13;9
70520;PMS5003;58442;52.716;23.560;2022-12-29T09:16:07;20;19;11
70520;PMS5003;58442;52.716;23.560;2022-12-29T09:18:08;12;12;10
70520;PMS5003;58442;52.716;23.560;2022-12-29T09:20:14;9;9;7
70520;PMS5003;58442;52.716;23.560;2022-12-29T09:22:17;10;10;5
70520;PMS5003;58442;52.716;23.560;2022-12-29T09:24:22;8;8;8
70520;PMS5003;58442;52.716;23.560;2022-12-29T09:26:23;12;12;8
70520;PMS5003;58442;52.716;23.560;2022-12-29T09:28:24;12;12;8
70520;PMS5003;58442;52.716;23.560;2022-12-29T09:31:56;12;12;8
70520;PMS5003;58442;52.716;23.560;2022-12-29T09:33:57;10;10;6
70520;PMS5003;58442;52.716;23.560;2022-12-29T09:35:58;7;7;5
70520;PMS5003;58442;52.716;23.560;2022-12-29T09:37:59;11;11;7
70520;PMS5003;58442;52.716;23.560;2022-12-29T09:40:00;11;11;7
70520;PMS5003;58442;52.716;23.560;2022-12-29T09:44:20;17;14;8
70520;PMS5003;58442;52.716;23.560;2022-12-29T09:46:33;8;8;6
70520;PMS5003;58442;52.716;23.560;2022-12-29T09:48:47;8;8;6
70520;PMS5003;58442;52.716;23.560;2022-12-29T09:50:55;10;10;6
70520;PMS5003;58442;52.716;23.560;2022-12-29T09:53:04;13;13;9
70520;PMS5003;58442;52.716;23.560;2022-12-29T09:59:39;7;7;3
70520;PMS5003;58442;52.716;23.560;2022-12-29T10:01:49;7;7;5
70520;PMS5003;58442;52.716;23.560;2022-12-29T10:03:56;12;12;8
70520;PMS5003;58442;52.716;23.560;2022-12-29T10:06:03;13;11;7
70520;PMS5003;58442;52.716;23.560;2022-12-29T10:10:30;12;12;8
70520;PMS5003;58442;52.716;23.560;2022-12-29T10:12:45;12;12;8
70520;PMS5003;58442;52.716;23.560;2022-12-29T10:24:11;9;9;7
70520;PMS5003;58442;52.716;23.560;2022-12-29T10:26:17;6;6;4
70520;PMS5003;58442;52.716;23.560;2022-12-29T10:30:38;12;12;7
70520;PMS5003;58442;52.716;23.560;2022-12-29T10:32:45;11;11;7
70520;PMS5003;58442;52.716;23.560;2022-12-29T10:34:54;9;8;6
70520;PMS5003;58442;52.716;23.560;2022-12-29T10:39:16;12;12;7
70520;PMS5003;58442;52.716;23.560;2022-12-29T10:45:47;7;6;5
70520;PMS5003;58442;52.716;23.560;2022-12-29T10:48:00;7;7;4
70520;PMS5003;58442;52.716;23.560;2022-12-29T10:50:06;9;9;7
70520;PMS5003;58442;52.716;23.560;2022-12-29T10:52:08;9;8;5
70520;PMS5003;58442;52.716;23.560;2022-12-29T10:54:13;6;6;5
70520;PMS5003;58442;52.716;23.560;2022-12-29T10:56:25;10;10;6
70520;PMS5003;58442;52.716;23.560;2022-12-29T10:58:34;7;7;5
70520;PMS5003;58442;52.716;23.560;2022-12-29T11:00:36;9;9;7
70520;PMS5003;58442;52.716;23.560;2022-12-29T11:07:07;7;7;5
70520;PMS5003;58442;52.716;23.560;2022-12-29T11:11:33;7;7;6
70520;PMS5003;58442;52.716;23.560;2022-12-29T11:13:46;38;32;18
70520;PMS5003;58442;52.716;23.560;2022-12-29T11:15:48;28;27;17
70520;PMS5003;58442;52.716;23.560;2022-12-29T11:17:56;21;21;12
70520;PMS5003;58442;52.716;23.560;2022-12-29T11:19:59;10;10;5
70520;PMS5003;58442;52.716;23.560;2022-12-29T11:24:34;8;8;5
70520;PMS5003;58442;52.716;23.560;2022-12-29T11:27:08;8;8;6
70520;PMS5003;58442;52.716;23.560;2022-12-29T11:29:20;12;10;7
70520;PMS5003;58442;52.716;23.560;2022-12-29T11:31:23;10;10;7
70520;PMS5003;58442;52.716;23.560;2022-12-29T11:33:24;9;9;6
70520;PMS5003;58442;52.716;23.560;2022-12-29T11:35:35;27;27;16
70520;PMS5003;58442;52.716;23.560;2022-12-29T11:37:41;12;12;7
70520;PMS5003;58442;52.716;23.560;2022-12-29T11:41:57;8;8;7
70520;PMS5003;58442;52.716;23.560;2022-12-29T11:43:59;21;21;13
70520;PMS5003;58442;52.716;23.560;2022-12-29T11:46:06;10;10;8
70520;PMS5003;58442;52.716;23.560;2022-12-29T11:48:22;9;9;5
70520;PMS5003;58442;52.716;23.560;2022-12-29T11:50:29;12;10;7
70520;PMS5003;58442;52.716;23.560;2022-12-29T11:52:33;8;8;7
70520;PMS5003;58442;52.716;23.560;2022-12-29T11:54:39;9;9;5
70520;PMS5003;58442;52.716;23.560;2022-12-29T11:56:41;12;11;7
70520;PMS5003;58442;52.716;23.560;2022-12-29T11:58:43;9;9;5
70520;PMS5003;58442;52.716;23.560;2022-12-29T12:00:45;9;9;7
70520;PMS5003;58442;52.716;23.560;2022-12-29T12:03:12;13;13;9
70520;PMS5003;58442;52.716;23.560;2022-12-29T12:05:10;8;8;4
70520;PMS5003;58442;52.716;23.560;2022-12-29T12:07:22;7;7;5
70520;PMS5003;58442;52.716;23.560;2022-12-29T12:09:36;7;7;7
70520;PMS5003;58442;52.716;23.560;2022-12-29T12:11:46;8;8;7
70520;PMS5003;58442;52.716;23.560;2022-12-29T12:13:53;14;14;10
70520;PMS5003;58442;52.716;23.560;2022-12-29T12:22:38;13;13;6
70520;PMS5003;58442;52.716;23.560;2022-12-29T12:25:01;8;8;6
70520;PMS5003;58442;52.716;23.560;2022-12-29T12:27:19;5;5;4
70520;PMS5003;58442;52.716;23.560;2022-12-29T12:29:25;10;10;7
70520;PMS5003;58442;52.716;23.560;2022-12-29T12:33:50;7;7;5
70520;PMS5003;58442;52.716;23.560;2022-12-29T12:42:47;11;11;7
70520;PMS5003;58442;52.716;23.560;2022-12-29T12:57:10;6;6;3
70520;PMS5003;58442;52.716;23.560;2022-12-29T13:15:47;6;6;4
70520;PMS5003;58442;52.716;23.560;2022-12-29T13:36:59;8;8;6
70520;PMS5003;58442;52.716;23.560;2022-12-29T13:41:18;8;8;5
70520;PMS5003;58442;52.716;23.560;2022-12-29T13:43:24;5;5;3
70520;PMS5003;58442;52.716;23.560;2022-12-29T13:45:31;6;5;5
70520;PMS5003;58442;52.716;23.560;2022-12-29T13:47:42;8;8;5
70520;PMS5003;58442;52.716;23.560;2022-12-29T13:49:50;7;7;5
70520;PMS5003;58442;52.716;23.560;2022-12-29T14:07:35;6;6;3
70520;PMS5003;58442;52.716;23.560;2022-12-29T14:09:42;6;6;3
70520;PMS5003;58442;52.716;23.560;2022-12-29T14:11:51;4;4;2
70520;PMS5003;58442;52.716;23.560;2022-12-29T14:13:53;7;7;5
70520;PMS5003;58442;52.716;23.560;2022-12-29T14:16:03;10;10;6
70520;PMS5003;58442;52.716;23.560;2022-12-29T14:20:18;6;6;5
70520;PMS5003;58442;52.716;23.560;2022-12-29T14:22:22;8;8;5
70520;PMS5003;58442;52.716;23.560;2022-12-29T14:24:46;6;6;4
70520;PMS5003;58442;52.716;23.560;2022-12-29T14:26:42;9;9;7
70520;PMS5003;58442;52.716;23.560;2022-12-29T14:28:47;2;2;2
70520;PMS5003;58442;52.716;23.560;2022-12-29T14:30:50;7;7;5
70520;PMS5003;58442;52.716;23.560;2022-12-29T14:33:11;8;8;6
70520;PMS5003;58442;52.716;23.560;2022-12-29T14:35:46;5;5;3
70520;PMS5003;58442;52.716;23.560;2022-12-29T14:39:41;8;8;6
70520;PMS5003;58442;52.716;23.560;2022-12-29T14:41:44;6;6;4
70520;PMS5003;58442;52.716;23.560;2022-12-29T14:45:59;9;9;8
70520;PMS5003;58442;52.716;23.560;2022-12-29T14:48:01;7;7;5
70520;PMS5003;58442;52.716;23.560;2022-12-29T14:50:17;7;7;6
70520;PMS5003;58442;52.716;23.560;2022-12-29T14:52:23;10;10;7
70520;PMS5003;58442;52.716;23.560;2022-12-29T14:56:43;7;7;6
70520;PMS5003;58442;52.716;23.560;2022-12-29T15:00:58;11;11;7
70520;PMS5003;58442;52.716;23.560;2022-12-29T15:05:22;8;7;5
70520;PMS5003;58442;52.716;23.560;2022-12-29T15:07:31;8;7;5
70520;PMS5003;58442;52.716;23.560;2022-12-29T15:09:34;8;8;6
70520;PMS5003;58442;52.716;23.560;2022-12-29T15:11:44;10;10;6
70520;PMS5003;58442;52.716;23.560;2022-12-29T15:13:50;6;6;5
70520;PMS5003;58442;52.716;23.560;2022-12-29T15:15:51;7;6;5
70520;PMS5003;58442;52.716;23.560;2022-12-29T15:17:55;9;9;5
70520;PMS5003;58442;52.716;23.560;2022-12-29T15:19:58;11;9;7
70520;PMS5003;58442;52.716;23.560;2022-12-29T15:22:17;8;8;7
70520;PMS5003;58442;52.716;23.560;2022-12-29T15:24:18;8;8;6
70520;PMS5003;58442;52.716;23.560;2022-12-29T15:26:19;7;7;5
70520;PMS5003;58442;52.716;23.560;2022-12-29T15:28:24;10;10;7
70520;PMS5003;58442;52.716;23.560;2022-12-29T15:30:32;6;6;5
70520;PMS5003;58442;52.716;23.560;2022-12-29T15:32:43;9;9;5
70520;PMS5003;58442;52.716;23.560;2022-12-29T15:34:41;6;6;6
70520;PMS5003;58442;52.716;23.560;2022-12-29T15:36:44;9;8;6
70520;PMS5003;58442;52.716;23.560;2022-12-29T15:38:47;8;7;7
70520;PMS5003;58442;52.716;23.560;2022-12-29T15:43:06;11;11;7
70520;PMS5003;58442;52.716;23.560;2022-12-29T15:45:14;12;11;6
70520;PMS5003;58442;52.716;23.560;2022-12-29T15:47:16;8;8;6
70520;PMS5003;58442;52.716;23.560;2022-12-29T15:49:28;8;8;4
70520;PMS5003;58442;52.716;23.560;2022-12-29T15:51:30;4;4;3
70520;PMS5003;58442;52.716;23.560;2022-12-29T15:53:35;10;10;6
70520;PMS5003;58442;52.716;23.560;2022-12-29T15:55:37;11;10;7
70520;PMS5003;58442;52.716;23.560;2022-12-29T15:57:43;11;11;7
70520;PMS5003;58442;52.716;23.560;2022-12-29T15:59:46;9;9;7
70520;PMS5003;58442;52.716;23.560;2022-12-29T16:01:48;9;9;7
70520;PMS5003;58442;52.716;23.560;2022-12-29T16:03:50;13;11;6
70520;PMS5003;58442;52.716;23.560;2022-12-29T16:10:41;6;6;6
70520;PMS5003;58442;52.716;23.560;2022-12-29T16:12:43;8;8;5
70520;PMS5003;58442;52.716;23.560;2022-12-29T16:14:49;10;10;6
70520;PMS5003;58442;52.716;23.560;2022-12-29T16:16:55;8;8;6
70520;PMS5003;58442;52.716;23.560;2022-12-29T16:19:09;9;8;6
70520;PMS5003;58442;52.716;23.560;2022-12-29T16:23:38;10;9;6
70520;PMS5003;58442;52.716;23.560;2022-12-29T16:25:40;10;10;7
70520;PMS5003;58442;52.716;23.560;2022-12-29T16:27:41;10;10;7